createdAt,value
2019-03-06T00:00:49.030Z,97786.00
2019-03-06T00:03:18.433Z,97790.00
2019-03-06T00:05:47.988Z,97797.00
2019-03-06T00:08:17.258Z,97790.00
2019-03-06T00:10:46.521Z,97787.00
2019-03-06T00:13:15.786Z,97783.00
2019-03-06T00:15:45.402Z,97782.00
2019-03-06T00:18:14.657Z,97776.00
2019-03-06T00:20:43.921Z,97773.00
2019-03-06T00:23:13.180Z,97775.00
2019-03-06T00:25:42.444Z,97774.00
2019-03-06T00:28:11.981Z,97769.00
2019-03-06T00:30:41.651Z,97772.00
2019-03-06T00:33:10.985Z,97770.00
2019-03-06T00:35:41.893Z,97769.00
2019-03-06T00:38:11.153Z,97771.00
2019-03-06T00:40:48.153Z,97766.00
2019-03-06T00:43:17.417Z,97767.00
2019-03-06T00:45:47.041Z,97768.00
2019-03-06T00:48:16.302Z,97771.00
2019-03-06T00:50:45.852Z,97785.00
2019-03-06T00:53:15.115Z,97773.00
2019-03-06T00:55:44.377Z,97778.00
2019-03-06T00:58:13.647Z,97767.00
2019-03-06T01:00:43.051Z,97760.00
2019-03-06T01:03:12.929Z,97759.00
2019-03-06T01:05:42.198Z,97753.00
2019-03-06T01:08:11.533Z,97759.00
2019-03-06T01:10:40.787Z,97753.00
2019-03-06T01:13:10.058Z,97737.00
2019-03-06T01:15:39.314Z,97731.00
2019-03-06T01:18:08.646Z,97731.00
2019-03-06T01:20:37.905Z,97737.00
2019-03-06T01:23:07.166Z,97729.00
2019-03-06T01:25:36.427Z,97730.00
2019-03-06T01:28:05.769Z,97728.00
2019-03-06T01:30:35.301Z,97727.00
2019-03-06T01:33:06.369Z,97721.00
2019-03-06T01:35:43.009Z,97719.00
2019-03-06T01:38:22.437Z,97718.00
2019-03-06T01:41:09.588Z,97717.00
2019-03-06T01:43:52.386Z,97721.00
2019-03-06T01:46:21.662Z,97716.00
2019-03-06T01:48:50.931Z,97711.00
2019-03-06T01:51:20.459Z,97702.00
2019-03-06T01:53:49.726Z,97703.00
2019-03-06T01:56:18.990Z,97709.00
2019-03-06T01:58:48.261Z,97699.00
2019-03-06T02:01:17.866Z,97695.00
2019-03-06T02:03:47.153Z,97694.00
2019-03-06T02:06:16.633Z,97668.00
2019-03-06T02:08:46.279Z,97676.00
2019-03-06T02:11:15.885Z,97674.00
2019-03-06T02:13:45.150Z,97668.00
2019-03-06T02:16:14.525Z,97676.00
2019-03-06T02:18:44.130Z,97663.00
2019-03-06T02:21:13.391Z,97654.00
2019-03-06T02:23:42.660Z,97652.00
2019-03-06T02:26:12.201Z,97659.00
2019-03-06T02:28:41.471Z,97663.00
2019-03-06T02:31:11.006Z,97654.00
2019-03-06T02:33:40.736Z,97648.00
2019-03-06T02:36:10.325Z,97647.00
2019-03-06T02:38:39.599Z,97643.00
2019-03-06T02:41:08.864Z,97646.00
2019-03-06T02:43:38.477Z,97632.00
2019-03-06T02:46:08.062Z,97619.00
2019-03-06T02:48:37.754Z,97617.00
2019-03-06T02:51:09.057Z,97622.00
2019-03-06T02:53:38.020Z,97626.00
2019-03-06T02:56:07.805Z,97618.00
2019-03-06T02:58:44.628Z,97619.00
2019-03-06T03:01:15.532Z,97618.00
2019-03-06T03:04:02.719Z,97620.00
2019-03-06T03:06:36.299Z,97629.00
2019-03-06T03:09:13.017Z,97617.00
2019-03-06T03:11:42.283Z,97624.00
2019-03-06T03:14:11.628Z,97623.00
2019-03-06T03:16:40.895Z,97619.00
2019-03-06T03:19:10.166Z,97615.00
2019-03-06T03:21:39.436Z,97614.00
2019-03-06T03:24:08.701Z,97602.00
2019-03-06T03:26:38.348Z,97595.00
2019-03-06T03:29:07.750Z,97589.00
2019-03-06T03:31:37.330Z,97598.00
2019-03-06T03:34:06.937Z,97597.00
2019-03-06T03:36:36.266Z,97590.00
2019-03-06T03:39:07.728Z,97591.00
2019-03-06T03:41:37.060Z,97592.00
2019-03-06T03:44:06.398Z,97590.00
2019-03-06T03:46:36.000Z,97596.00
2019-03-06T03:49:05.269Z,97597.00
2019-03-06T03:51:34.708Z,97588.00
2019-03-06T03:54:03.982Z,97594.00
2019-03-06T03:56:33.249Z,97595.00
2019-03-06T03:59:02.519Z,97597.00
2019-03-06T04:01:31.906Z,97589.00
2019-03-06T04:04:01.510Z,97597.00
2019-03-06T04:06:31.018Z,97594.00
2019-03-06T04:09:00.352Z,97601.00
2019-03-06T04:11:29.625Z,97596.00
2019-03-06T04:13:58.907Z,97599.00
2019-03-06T04:16:28.447Z,97588.00
2019-03-06T04:18:57.743Z,97592.00
2019-03-06T04:21:27.336Z,97588.00
2019-03-06T04:23:56.615Z,97596.00
2019-03-06T04:26:26.127Z,97597.00
2019-03-06T04:28:55.409Z,97589.00
2019-03-06T04:34:01.110Z,97589.00
2019-03-06T04:36:30.720Z,97593.00
2019-03-06T04:39:00.328Z,97590.00
2019-03-06T04:41:29.875Z,97593.00
2019-03-06T04:43:59.437Z,97590.00
2019-03-06T04:46:28.964Z,97593.00
2019-03-06T04:48:58.241Z,97600.00
2019-03-06T04:51:27.850Z,97600.00
2019-03-06T04:53:57.118Z,97594.00
2019-03-06T04:56:26.387Z,97591.00
2019-03-06T04:58:55.656Z,97589.00
2019-03-06T05:01:25.256Z,97576.00
2019-03-06T05:03:54.779Z,97564.00
2019-03-06T05:06:24.045Z,97563.00
2019-03-06T05:08:53.568Z,97559.00
2019-03-06T05:11:23.087Z,97554.00
2019-03-06T05:13:52.678Z,97553.00
2019-03-06T05:16:23.919Z,97560.00
2019-03-06T05:18:55.401Z,97542.00
2019-03-06T05:21:24.694Z,97543.00
2019-03-06T05:23:53.956Z,97534.00
2019-03-06T05:26:23.223Z,97533.00
2019-03-06T05:28:52.871Z,97538.00
2019-03-06T05:31:22.490Z,97540.00
2019-03-06T05:33:51.757Z,97530.00
2019-03-06T05:36:49.601Z,97522.00
2019-03-06T05:39:18.876Z,97517.00
2019-03-06T05:41:48.144Z,97534.00
2019-03-06T05:44:17.658Z,97527.00
2019-03-06T05:46:46.923Z,97523.00
2019-03-06T05:49:16.188Z,97511.00
2019-03-06T05:51:45.457Z,97501.00
2019-03-06T05:54:14.726Z,97491.00
2019-03-06T05:56:43.997Z,97496.00
2019-03-06T05:59:13.268Z,97498.00
2019-03-06T06:01:42.560Z,97491.00
2019-03-06T06:04:12.084Z,97495.00
2019-03-06T06:06:41.350Z,97496.00
2019-03-06T06:09:10.616Z,97501.00
2019-03-06T06:11:40.269Z,97495.00
2019-03-06T06:14:09.780Z,97495.00
2019-03-06T06:16:39.418Z,97504.00
2019-03-06T06:19:08.661Z,97501.00
2019-03-06T06:21:55.675Z,97509.00
2019-03-06T06:24:25.433Z,97495.00
2019-03-06T06:26:54.705Z,97495.00
2019-03-06T06:29:23.971Z,97488.00
2019-03-06T06:31:53.238Z,97486.00
2019-03-06T06:34:22.507Z,97466.00
2019-03-06T06:36:51.784Z,97460.00
2019-03-06T06:39:21.054Z,97470.00
2019-03-06T06:41:50.336Z,97475.00
2019-03-06T06:44:19.603Z,97462.00
2019-03-06T06:46:48.879Z,97466.00
2019-03-06T06:49:18.422Z,97462.00
2019-03-06T06:52:36.555Z,97469.00
2019-03-06T06:55:33.315Z,97449.00
2019-03-06T06:58:09.940Z,97453.00
2019-03-06T07:00:51.371Z,97442.00
2019-03-06T07:03:50.598Z,97436.00
2019-03-06T07:06:27.760Z,97443.00
2019-03-06T07:09:13.996Z,97437.00
2019-03-06T07:11:53.563Z,97434.00
2019-03-06T07:14:29.954Z,97434.00
2019-03-06T07:17:00.875Z,97429.00
2019-03-06T07:19:31.780Z,97431.00
2019-03-06T07:22:18.802Z,97419.00
2019-03-06T07:24:49.716Z,97428.00
2019-03-06T07:27:23.296Z,97438.00
2019-03-06T07:29:57.110Z,97423.00
2019-03-06T07:32:28.015Z,97427.00
2019-03-06T07:35:57.389Z,97430.00
2019-03-06T07:38:27.366Z,97420.00
2019-03-06T07:41:14.695Z,97423.00
2019-03-06T07:43:48.800Z,97413.00
2019-03-06T07:46:26.015Z,97414.00
2019-03-06T07:48:57.393Z,97411.00
2019-03-06T07:51:28.306Z,97406.00
2019-03-06T07:54:03.030Z,97406.00
2019-03-06T07:56:34.001Z,97407.00
2019-03-06T07:59:03.267Z,97405.00
2019-03-06T08:01:37.615Z,97408.00
2019-03-06T08:04:12.999Z,97411.00
2019-03-06T08:06:44.077Z,97412.00
2019-03-06T08:09:19.337Z,97403.00
2019-03-06T08:11:56.182Z,97405.00
2019-03-06T08:14:42.938Z,97405.00
2019-03-06T08:17:13.845Z,97408.00
2019-03-06T08:20:01.237Z,97399.00
2019-03-06T08:22:48.491Z,97395.00
2019-03-06T08:25:22.406Z,97405.00
2019-03-06T08:27:51.675Z,97394.00
2019-03-06T08:30:21.716Z,97394.00
2019-03-06T08:32:50.977Z,97388.00
2019-03-06T08:35:20.265Z,97384.00
2019-03-06T08:37:49.797Z,97393.00
2019-03-06T08:40:19.392Z,97391.00
2019-03-06T08:42:48.906Z,97388.00
2019-03-06T08:45:20.050Z,97379.00
2019-03-06T08:47:56.994Z,97383.00
2019-03-06T08:50:43.194Z,97394.00
2019-03-06T08:53:17.452Z,97376.00
2019-03-06T08:55:51.018Z,97378.00
2019-03-06T08:58:21.932Z,97369.00
2019-03-06T09:00:58.909Z,97374.00
2019-03-06T09:03:45.891Z,97371.00
2019-03-06T09:06:22.645Z,97356.00
2019-03-06T09:08:56.320Z,97355.00
2019-03-06T09:11:43.035Z,97354.00
2019-03-06T09:14:19.645Z,97359.00
2019-03-06T09:16:50.545Z,97354.00
2019-03-06T09:19:24.558Z,97339.00
2019-03-06T09:22:04.430Z,97343.00
2019-03-06T09:24:51.636Z,97341.00
2019-03-06T09:27:22.784Z,97346.00
2019-03-06T09:29:56.406Z,97335.00
2019-03-06T09:32:27.322Z,97325.00
2019-03-06T09:35:01.361Z,97314.00
2019-03-06T09:37:38.199Z,97317.00
2019-03-06T09:40:14.177Z,97303.00
2019-03-06T09:42:45.081Z,97291.00
2019-03-06T09:45:22.046Z,97291.00
2019-03-06T09:47:52.955Z,97284.00
2019-03-06T09:50:35.589Z,97272.00
2019-03-06T09:53:06.994Z,97267.00
2019-03-06T09:55:54.306Z,97260.00
2019-03-06T09:58:25.212Z,97248.00
2019-03-06T10:01:01.930Z,97262.00
2019-03-06T10:03:39.202Z,97259.00
2019-03-06T10:06:10.119Z,97253.00
2019-03-06T10:08:56.884Z,97253.00
2019-03-06T10:11:28.078Z,97256.00
2019-03-06T10:13:58.988Z,97244.00
2019-03-06T10:16:32.585Z,97239.00
2019-03-06T10:19:05.297Z,97233.00
2019-03-06T10:21:34.821Z,97224.00
2019-03-06T10:24:04.091Z,97223.00
2019-03-06T10:26:33.437Z,97212.00
2019-03-06T10:29:02.710Z,97213.00
2019-03-06T10:31:31.985Z,97211.00
2019-03-06T10:34:01.544Z,97205.00
2019-03-06T10:36:31.073Z,97201.00
2019-03-06T10:39:00.662Z,97200.00
2019-03-06T10:41:30.184Z,97194.00
2019-03-06T10:43:59.460Z,97190.00
2019-03-06T10:46:28.732Z,97185.00
2019-03-06T10:48:58.001Z,97185.00
2019-03-06T10:51:27.275Z,97183.00
2019-03-06T10:53:56.543Z,97175.00
2019-03-06T10:56:26.272Z,97176.00
2019-03-06T10:58:56.698Z,97169.00
2019-03-06T11:01:26.411Z,97174.00
2019-03-06T11:04:12.725Z,97170.00
2019-03-06T11:06:42.002Z,97168.00
2019-03-06T11:09:11.882Z,97161.00
2019-03-06T11:11:41.227Z,97163.00
2019-03-06T11:14:10.845Z,97161.00
2019-03-06T11:16:40.200Z,97158.00
2019-03-06T11:19:10.220Z,97161.00
2019-03-06T11:21:39.560Z,97144.00
2019-03-06T11:24:09.139Z,97150.00
2019-03-06T11:26:39.275Z,97137.00
2019-03-06T11:29:11.245Z,97128.00
2019-03-06T11:31:40.652Z,97134.00
2019-03-06T11:34:10.160Z,97126.00
2019-03-06T11:36:40.071Z,97121.00
2019-03-06T11:39:11.653Z,97113.00
2019-03-06T11:41:41.103Z,97091.00
2019-03-06T11:44:10.447Z,97092.00
2019-03-06T11:46:39.721Z,97096.00
2019-03-06T11:49:09.008Z,97082.00
2019-03-06T11:51:38.278Z,97081.00
2019-03-06T11:54:07.620Z,97076.00
2019-03-06T11:56:37.030Z,97065.00
2019-03-06T11:59:06.566Z,97058.00
2019-03-06T12:01:36.807Z,97063.00
2019-03-06T12:04:06.206Z,97059.00
2019-03-06T12:06:35.797Z,97062.00
2019-03-06T12:09:09.778Z,97047.00
2019-03-06T12:11:39.055Z,97038.00
2019-03-06T12:14:08.786Z,97040.00
2019-03-06T12:16:41.791Z,97036.00
2019-03-06T12:19:09.048Z,97022.00
2019-03-06T12:21:38.331Z,97017.00
2019-03-06T12:24:08.078Z,97018.00
2019-03-06T12:26:37.848Z,97011.00
2019-03-06T12:29:07.123Z,97006.00
2019-03-06T12:31:36.404Z,96990.00
2019-03-06T12:34:05.743Z,96988.00
2019-03-06T12:36:36.200Z,96975.00
2019-03-06T12:39:06.430Z,96977.00
2019-03-06T12:41:35.741Z,96980.00
2019-03-06T12:44:10.345Z,96978.00
2019-03-06T12:46:36.152Z,96970.00
2019-03-06T12:49:06.203Z,96962.00
2019-03-06T12:51:35.475Z,96955.00
2019-03-06T12:54:05.381Z,96963.00
2019-03-06T12:56:34.720Z,96954.00
2019-03-06T12:59:04.126Z,96947.00
2019-03-06T13:01:33.470Z,96938.00
2019-03-06T13:04:02.992Z,96940.00
2019-03-06T13:06:32.263Z,96934.00
2019-03-06T13:09:01.972Z,96926.00
2019-03-06T13:11:31.239Z,96921.00
2019-03-06T13:14:00.503Z,96928.00
2019-03-06T13:16:29.845Z,96912.00
2019-03-06T13:18:59.929Z,96901.00
2019-03-06T13:21:29.195Z,96898.00
2019-03-06T13:23:58.533Z,96902.00
2019-03-06T13:26:27.801Z,96889.00
2019-03-06T13:28:57.845Z,96898.00
2019-03-06T13:31:27.643Z,96893.00
2019-03-06T13:33:58.550Z,96886.00
2019-03-06T13:36:27.828Z,96892.00
2019-03-06T13:39:06.095Z,96871.00
2019-03-06T13:41:28.622Z,96890.00
2019-03-06T13:43:57.896Z,96883.00
2019-03-06T13:46:27.447Z,96879.00
2019-03-06T13:48:56.962Z,96875.00
2019-03-06T13:51:26.276Z,96873.00
2019-03-06T13:53:56.716Z,96873.00
2019-03-06T13:56:26.033Z,96876.00
2019-03-06T13:58:55.371Z,96872.00
2019-03-06T14:01:24.718Z,96873.00
2019-03-06T14:03:54.057Z,96878.00
2019-03-06T14:06:23.396Z,96875.00
2019-03-06T14:08:52.668Z,96868.00
2019-03-06T14:11:22.072Z,96859.00
2019-03-06T14:13:51.341Z,96871.00
2019-03-06T14:16:20.794Z,96865.00
2019-03-06T14:18:50.074Z,96863.00
2019-03-06T14:21:19.327Z,96864.00
2019-03-06T14:23:48.606Z,96864.00
2019-03-06T14:26:18.585Z,96860.00
2019-03-06T14:28:47.894Z,96858.00
2019-03-06T14:31:17.866Z,96853.00
2019-03-06T14:33:47.145Z,96851.00
2019-03-06T14:36:16.665Z,96847.00
2019-03-06T14:38:45.948Z,96850.00
2019-03-06T14:41:15.283Z,96839.00
2019-03-06T14:43:44.633Z,96834.00
2019-03-06T14:46:16.831Z,96844.00
2019-03-06T14:48:45.157Z,96840.00
2019-03-06T14:51:14.435Z,96831.00
2019-03-06T14:53:43.707Z,96827.00
2019-03-06T14:56:12.982Z,96823.00
2019-03-06T14:58:42.891Z,96817.00
2019-03-06T15:01:12.481Z,96817.00
2019-03-06T15:03:41.755Z,96810.00
2019-03-06T15:06:12.659Z,96816.00
2019-03-06T15:08:44.329Z,96810.00
2019-03-06T15:11:13.604Z,96810.00
2019-03-06T15:13:42.876Z,96806.00
2019-03-06T15:16:12.393Z,96802.00
2019-03-06T15:18:41.913Z,96800.00
2019-03-06T15:21:11.542Z,96805.00
2019-03-06T15:23:40.769Z,96797.00
2019-03-06T15:26:10.640Z,96795.00
2019-03-06T15:28:39.895Z,96793.00
2019-03-06T15:31:09.235Z,96793.00
2019-03-06T15:33:38.575Z,96790.00
2019-03-06T15:36:07.914Z,96783.00
2019-03-06T15:38:37.247Z,96791.00
2019-03-06T15:41:06.915Z,96787.00
2019-03-06T15:43:36.411Z,96790.00
2019-03-06T15:46:05.952Z,96781.00
2019-03-06T15:48:35.220Z,96786.00
2019-03-06T15:51:04.489Z,96790.00
2019-03-06T15:53:34.153Z,96785.00
2019-03-06T15:56:03.487Z,96784.00
2019-03-06T15:58:33.484Z,96779.00
2019-03-06T16:01:03.190Z,96772.00
2019-03-06T16:03:32.997Z,96756.00
2019-03-06T16:06:02.336Z,96757.00
2019-03-06T16:08:31.787Z,96761.00
2019-03-06T16:11:01.417Z,96763.00
2019-03-06T16:13:31.018Z,96767.00
2019-03-06T16:16:00.625Z,96766.00
2019-03-06T16:18:29.895Z,96756.00
2019-03-06T16:20:59.162Z,96752.00
2019-03-06T16:23:28.452Z,96754.00
2019-03-06T16:25:57.725Z,96752.00
2019-03-06T16:28:26.991Z,96750.00
2019-03-06T16:30:56.530Z,96748.00
2019-03-06T16:33:25.795Z,96747.00
2019-03-06T16:35:55.252Z,96759.00
2019-03-06T16:38:24.548Z,96753.00
2019-03-06T16:40:53.825Z,96750.00
2019-03-06T16:43:23.194Z,96748.00
2019-03-06T16:45:52.534Z,96751.00
2019-03-06T16:48:21.809Z,96744.00
2019-03-06T16:50:51.074Z,96746.00
2019-03-06T16:53:20.421Z,96739.00
2019-03-06T16:55:49.692Z,96744.00
2019-03-06T16:58:18.960Z,96735.00
2019-03-06T17:00:49.847Z,96724.00
2019-03-06T17:03:19.112Z,96726.00
2019-03-06T17:05:49.193Z,96724.00
2019-03-06T17:08:19.005Z,96721.00
2019-03-06T17:10:48.272Z,96725.00
2019-03-06T17:13:17.545Z,96720.00
2019-03-06T17:15:46.816Z,96719.00
2019-03-06T17:18:16.166Z,96719.00
2019-03-06T17:20:45.914Z,96722.00
2019-03-06T17:23:15.179Z,96720.00
2019-03-06T17:25:44.452Z,96719.00
2019-03-06T17:28:13.865Z,96716.00
2019-03-06T17:30:43.732Z,96723.00
2019-03-06T17:33:17.687Z,96720.00
2019-03-06T17:35:46.960Z,96721.00
2019-03-06T17:38:17.085Z,96722.00
2019-03-06T17:40:46.532Z,96717.00
2019-03-06T17:43:16.029Z,96722.00
2019-03-06T17:45:45.644Z,96727.00
2019-03-06T17:48:15.249Z,96732.00
2019-03-06T17:50:44.591Z,96721.00
2019-03-06T17:53:13.928Z,96720.00
2019-03-06T17:55:43.288Z,96726.00
2019-03-06T17:58:12.535Z,96722.00
2019-03-06T18:00:43.843Z,96714.00
2019-03-06T18:03:14.748Z,96709.00
2019-03-06T18:05:44.093Z,96701.00
2019-03-06T18:08:13.435Z,96697.00
2019-03-06T18:10:42.895Z,96688.00
2019-03-06T18:13:12.932Z,96675.00
2019-03-06T18:15:44.424Z,96677.00
2019-03-06T18:18:13.504Z,96679.00
2019-03-06T18:20:43.082Z,96656.00
2019-03-06T18:23:12.662Z,96642.00
2019-03-06T18:25:42.577Z,96632.00
2019-03-06T18:28:11.923Z,96634.00
2019-03-06T18:30:41.268Z,96632.00
2019-03-06T18:33:10.895Z,96633.00
2019-03-06T18:35:40.169Z,96623.00
2019-03-06T18:38:09.712Z,96622.00
2019-03-06T18:40:38.994Z,96616.00
2019-03-06T18:43:08.513Z,96615.00
2019-03-06T18:45:38.115Z,96609.00
2019-03-06T18:48:07.447Z,96610.00
2019-03-06T18:50:36.717Z,96611.00
2019-03-06T18:53:06.318Z,96617.00
2019-03-06T18:55:35.582Z,96623.00
2019-03-06T18:58:04.862Z,96623.00
2019-03-06T19:00:34.140Z,96614.00
2019-03-06T19:03:03.424Z,96620.00
2019-03-06T19:05:32.687Z,96611.00
2019-03-06T19:08:01.965Z,96607.00
2019-03-06T19:10:31.233Z,96603.00
2019-03-06T19:13:00.505Z,96594.00
2019-03-06T19:15:30.313Z,96589.00
2019-03-06T19:17:59.585Z,96593.00
2019-03-06T19:20:28.851Z,96580.00
2019-03-06T19:22:58.447Z,96583.00
2019-03-06T19:25:27.783Z,96582.00
2019-03-06T19:27:57.056Z,96593.00
2019-03-06T19:30:27.558Z,96583.00
2019-03-06T19:32:56.901Z,96588.00
2019-03-06T19:35:28.584Z,96585.00
2019-03-06T19:37:57.927Z,96572.00
2019-03-06T19:40:27.471Z,96576.00
2019-03-06T19:42:56.786Z,96582.00
2019-03-06T19:45:26.899Z,96573.00
2019-03-06T19:47:56.185Z,96563.00
2019-03-06T19:50:27.309Z,96547.00
2019-03-06T19:52:56.650Z,96549.00
2019-03-06T19:55:26.362Z,96543.00
2019-03-06T19:58:04.553Z,96554.00
2019-03-06T20:00:34.661Z,96542.00
2019-03-06T20:03:06.903Z,96546.00
2019-03-06T20:05:39.031Z,96550.00
2019-03-06T20:08:11.927Z,96547.00
2019-03-06T20:10:41.433Z,96542.00
2019-03-06T20:13:11.712Z,96548.00
2019-03-06T20:15:41.928Z,96537.00
2019-03-06T20:18:11.711Z,96535.00
2019-03-06T20:20:41.260Z,96527.00
2019-03-06T20:23:10.831Z,96528.00
2019-03-06T20:25:40.103Z,96524.00
2019-03-06T20:28:09.372Z,96527.00
2019-03-06T20:30:39.040Z,96531.00
2019-03-06T20:33:08.452Z,96524.00
2019-03-06T20:35:37.895Z,96519.00
2019-03-06T20:38:07.166Z,96519.00
2019-03-06T20:40:36.684Z,96517.00
2019-03-06T20:43:05.959Z,96519.00
2019-03-06T20:45:35.509Z,96539.00
2019-03-06T20:48:04.919Z,96516.00
2019-03-06T20:50:34.716Z,96527.00
2019-03-06T20:53:04.026Z,96495.00
2019-03-06T20:55:33.288Z,96499.00
2019-03-06T20:58:03.297Z,96506.00
2019-03-06T21:00:32.560Z,96510.00
2019-03-06T21:03:02.094Z,96510.00
2019-03-06T21:05:31.531Z,96519.00
2019-03-06T21:08:01.108Z,96512.00
2019-03-06T21:10:30.378Z,96505.00
2019-03-06T21:12:59.658Z,96518.00
2019-03-06T21:15:28.927Z,96521.00
2019-03-06T21:17:58.508Z,96530.00
2019-03-06T21:20:27.778Z,96527.00
2019-03-06T21:22:57.061Z,96532.00
2019-03-06T21:25:26.337Z,96526.00
2019-03-06T21:27:55.621Z,96526.00
2019-03-06T21:30:29.829Z,96523.00
2019-03-06T21:32:59.109Z,96521.00
2019-03-06T21:35:28.377Z,96528.00
2019-03-06T21:37:57.662Z,96514.00
2019-03-06T21:40:27.233Z,96491.00
2019-03-06T21:42:56.496Z,96502.00
2019-03-06T21:45:25.781Z,96506.00
2019-03-06T21:47:57.494Z,96505.00
2019-03-06T21:50:26.343Z,96492.00
2019-03-06T21:52:55.618Z,96492.00
2019-03-06T21:55:25.187Z,96491.00
2019-03-06T21:57:54.450Z,96473.00
2019-03-06T22:00:24.871Z,96468.00
2019-03-06T22:02:54.135Z,96454.00
2019-03-06T22:05:23.743Z,96457.00
2019-03-06T22:07:53.010Z,96470.00
2019-03-06T22:10:22.284Z,96464.00
2019-03-06T22:12:51.559Z,96462.00
2019-03-06T22:15:22.844Z,96451.00
2019-03-06T22:17:52.117Z,96442.00
2019-03-06T22:20:21.472Z,96443.00
2019-03-06T22:22:50.747Z,96446.00
2019-03-06T22:25:20.263Z,96456.00
2019-03-06T22:27:49.534Z,96449.00
2019-03-06T22:30:26.862Z,96452.00
2019-03-06T22:32:56.138Z,96457.00
2019-03-06T22:35:25.410Z,96451.00
2019-03-06T22:37:54.682Z,96463.00
2019-03-06T22:40:23.971Z,96463.00
2019-03-06T22:42:53.232Z,96474.00
2019-03-06T22:45:22.648Z,96475.00
2019-03-06T22:47:52.269Z,96480.00
2019-03-06T22:50:21.612Z,96479.00
2019-03-06T22:52:51.262Z,96478.00
2019-03-06T22:55:21.472Z,96479.00
2019-03-06T22:57:50.743Z,96474.00
2019-03-06T23:00:46.891Z,96464.00
2019-03-06T23:03:17.669Z,96458.00
2019-03-06T23:05:47.214Z,96447.00
2019-03-06T23:08:16.561Z,96456.00
2019-03-06T23:10:46.185Z,96435.00
2019-03-06T23:13:15.460Z,96434.00
2019-03-06T23:15:44.912Z,96435.00
2019-03-06T23:18:14.494Z,96431.00
2019-03-06T23:20:43.814Z,96429.00
2019-03-06T23:23:13.044Z,96422.00
2019-03-06T23:25:42.355Z,96423.00
2019-03-06T23:28:12.101Z,96424.00
2019-03-06T23:30:41.387Z,96418.00
2019-03-06T23:33:10.647Z,96414.00
2019-03-06T23:35:39.923Z,96408.00
2019-03-06T23:38:09.197Z,96410.00
2019-03-06T23:40:38.473Z,96416.00
2019-03-06T23:43:08.023Z,96415.00
2019-03-06T23:45:37.297Z,96407.00
2019-03-06T23:48:06.572Z,96416.00
2019-03-06T23:50:35.845Z,96410.00
2019-03-06T23:53:06.660Z,96407.00
2019-03-06T23:55:35.942Z,96411.00
2019-03-06T23:58:05.289Z,96408.00
